Time;durP1;ratioP1;P1;durP2;ratioP2;P2;SDS_P1;SDS_P2;PMS_P1;PMS_P2;Temp;Humidity;BMP_temperature;BMP_pressure;BME280_temperature;BME280_humidity;BME280_pressure;Samples;Min_cycle;Max_cycle;Signal;HPM_P1;HPM_P2
2022/02/12 00:02:44;;;;;;;5.47;2.00;;;;;;;0.53;100.00;102063.75;5151836;57;1136936;-73
2022/02/12 00:07:49;;;;;;;12.33;3.70;;;;;;;0.52;100.00;102067.23;5152128;57;1136891;-74
2022/02/12 00:12:55;;;;;;;9.23;3.30;;;;;;;0.52;100.00;102076.34;5151909;57;1139026;-79
2022/02/12 00:18:02;;;;;;;12.90;3.90;;;;;;;0.50;100.00;102075.49;5151614;57;1136979;-75
2022/02/12 00:23:08;;;;;;;11.00;3.40;;;;;;;0.53;100.00;102082.41;5153927;57;1138934;-74
2022/02/12 00:28:14;;;;;;;13.40;3.13;;;;;;;0.50;100.00;102083.74;5160638;57;1139258;-76
2022/02/12 00:33:19;;;;;;;11.40;2.90;;;;;;;0.45;100.00;102086.86;5159833;57;1138988;-70
2022/02/12 00:38:25;;;;;;;18.57;4.50;;;;;;;0.40;100.00;102098.61;5163125;56;1139107;-74
2022/02/12 00:43:31;;;;;;;12.07;4.57;;;;;;;0.30;100.00;102106.96;5163390;57;1139075;-74
2022/02/12 00:48:37;;;;;;;13.03;3.40;;;;;;;0.28;100.00;102131.27;5163989;56;1138904;-74
2022/02/12 00:53:43;;;;;;;15.00;3.37;;;;;;;0.23;100.00;102138.23;5164355;56;1139063;-75
2022/02/12 00:58:49;;;;;;;13.83;3.67;;;;;;;0.20;100.00;102148.23;5163841;57;1139021;-72
2022/02/12 01:03:55;;;;;;;11.60;3.43;;;;;;;0.13;100.00;102149.61;5164055;57;1138987;-72
2022/02/12 01:09:02;;;;;;;18.23;4.33;;;;;;;0.09;100.00;102161.78;5163939;57;1136853;-71
2022/02/12 01:14:10;;;;;;;14.37;2.93;;;;;;;0.07;100.00;102166.13;5163473;57;1136908;-70
2022/02/12 01:19:16;;;;;;;12.97;2.90;;;;;;;0.07;100.00;102167.42;5163772;57;1136790;-74
2022/02/12 01:24:22;;;;;;;17.53;4.60;;;;;;;0.05;100.00;102169.17;5163947;56;1137142;-74
2022/02/12 01:29:28;;;;;;;11.10;3.03;;;;;;;0.03;100.00;102168.31;5164384;57;1136792;-77
2022/02/12 01:34:35;;;;;;;10.07;3.70;;;;;;;0.02;100.00;102176.13;5164148;56;1136918;-78
2022/02/12 01:39:41;;;;;;;17.47;4.87;;;;;;;-0.06;100.00;102189.20;5160705;57;1137125;-72
2022/02/12 01:44:48;;;;;;;11.83;2.63;;;;;;;-0.09;100.00;102182.72;5160541;57;1139080;-71
2022/02/12 01:49:54;;;;;;;14.43;3.30;;;;;;;-0.14;100.00;102185.34;5160391;57;1139075;-72
2022/02/12 01:55:01;;;;;;;16.77;5.40;;;;;;;-0.16;100.00;102205.75;5160352;57;1139088;-73
2022/02/12 02:00:11;;;;;;;22.20;7.57;;;;;;;-0.16;100.00;102217.45;5160381;57;1139045;-73
2022/02/12 02:05:19;;;;;;;31.77;9.28;;;;;;;-0.16;100.00;102227.86;5160158;57;1139040;-73
2022/02/12 02:10:26;;;;;;;15.40;4.80;;;;;;;-0.19;100.00;102221.37;5160269;57;1139025;-68
2022/02/12 02:15:32;;;;;;;16.83;4.50;;;;;;;-0.21;100.00;102225.27;5160222;57;1139317;-73
2022/02/12 02:20:38;;;;;;;11.23;2.90;;;;;;;-0.28;100.00;102229.20;5160251;57;1139278;-81
2022/02/12 02:25:44;;;;;;;10.17;2.70;;;;;;;-0.27;100.00;102229.20;5160238;57;1137004;-72
2022/02/12 02:30:49;;;;;;;11.75;2.87;;;;;;;-0.29;100.00;102233.97;5160488;57;1136851;-71
2022/02/12 02:35:56;;;;;;;16.93;3.13;;;;;;;-0.30;100.00;102242.64;5162028;56;1141030;-74
2022/02/12 02:41:02;;;;;;;13.10;2.70;;;;;;;-0.28;100.00;102250.86;5165699;57;1141022;-73
2022/02/12 02:46:08;;;;;;;11.17;2.67;;;;;;;-0.27;100.00;102258.23;5164026;57;1141042;-77
2022/02/12 02:56:37;;;;;;;7.03;2.37;;;;;;;-0.30;100.00;102281.20;5165385;56;1141116;-75
2022/02/12 03:01:45;;;;;;;9.70;3.80;;;;;;;-0.25;100.00;102274.69;5165166;57;1138973;-75
2022/02/12 03:06:51;;;;;;;11.27;2.63;;;;;;;-0.25;100.00;102289.85;5165631;57;1139131;-80
2022/02/12 03:11:56;;;;;;;7.07;2.37;;;;;;;-0.19;100.00;102284.64;5165283;56;1141064;-74
2022/02/12 03:17:02;;;;;;;5.73;2.40;;;;;;;-0.15;100.00;102294.13;5165360;57;1139016;-81
2022/02/12 03:22:08;;;;;;;3.30;1.90;;;;;;;-0.24;100.00;102293.31;5165232;56;1139015;-77
2022/02/12 03:27:14;;;;;;;15.33;2.57;;;;;;;-0.35;100.00;102308.97;5147641;57;1139080;-77
2022/02/12 03:32:20;;;;;;;13.47;2.90;;;;;;;-0.40;100.00;102315.48;5135880;56;1141323;-78
2022/02/12 03:37:27;;;;;;;13.90;2.27;;;;;;;-0.45;100.00;102326.31;5132746;57;1141115;-75
2022/02/12 03:42:34;;;;;;;12.87;2.63;;;;;;;-0.51;100.00;102333.29;5131683;57;1141088;-71
2022/02/12 03:47:40;;;;;;;12.50;3.30;;;;;;;-0.59;100.00;102336.33;5131583;57;1141380;-73
2022/02/12 03:52:45;;;;;;;9.60;2.50;;;;;;;-0.64;100.00;102332.89;5131966;57;1141091;-75
2022/02/12 03:57:51;;;;;;;12.33;2.90;;;;;;;-0.61;100.00;102339.39;5131732;57;1139062;-78
2022/02/12 04:03:02;;;;;;;11.70;2.80;;;;;;;-0.52;100.00;102332.86;5131720;57;1140938;-81
2022/02/12 04:08:05;;;;;;;8.53;2.67;;;;;;;-0.46;100.00;102348.44;5131006;57;1141021;-78
2022/02/12 04:13:11;;;;;;;11.83;2.93;;;;;;;-0.49;100.00;102351.91;5131765;57;1139151;-73
2022/02/12 04:18:17;;;;;;;8.57;2.90;;;;;;;-0.52;100.00;102351.91;5131367;57;1140723;-75
2022/02/12 04:23:23;;;;;;;13.10;3.50;;;;;;;-0.50;100.00;102355.37;5131552;57;1139110;-78
2022/02/12 04:28:35;;;;;;;11.53;4.00;;;;;;;-0.43;100.00;102351.87;5150642;57;1141152;-79
2022/02/12 04:33:37;;;;;;;15.80;3.23;;;;;;;-0.44;100.00;102351.87;5159959;57;1141187;-77
2022/02/12 04:38:43;;;;;;;51.97;20.07;;;;;;;-0.45;100.00;102343.64;5165028;56;1141362;-74
2022/02/12 04:43:49;;;;;;;39.10;14.13;;;;;;;-0.36;100.00;102347.53;5165008;56;1143163;-79
2022/02/12 04:48:55;;;;;;;33.73;9.80;;;;;;;-0.34;100.00;102354.03;5164851;57;1143328;-75
2022/02/12 04:54:01;;;;;;;15.35;5.15;;;;;;;-0.33;100.00;102344.06;5164668;57;1141269;-75
2022/02/12 04:59:06;;;;;;;9.57;3.53;;;;;;;-0.48;100.00;102351.05;5164843;56;1141058;-79
2022/02/12 05:04:12;;;;;;;11.50;3.60;;;;;;;-0.64;100.00;102348.05;5164973;57;1139036;-71
2022/02/12 05:09:19;;;;;;;7.87;2.60;;;;;;;-0.75;100.00;102351.08;5164944;56;1141297;-75
2022/02/12 05:14:29;;;;;;;13.27;3.10;;;;;;;-0.83;100.00;102356.73;5164823;57;1139230;-76
2022/02/12 05:19:32;;;;;;;11.03;4.30;;;;;;;-0.84;100.00;102364.09;5164729;57;1141125;-77
2022/02/12 05:24:38;;;;;;;18.17;4.83;;;;;;;-0.92;100.00;102364.55;5164944;56;1140987;-72
2022/02/12 05:29:44;;;;;;;12.03;5.20;;;;;;;-0.98;100.00;102365.84;5164771;57;1141323;-75
2022/02/12 05:34:50;;;;;;;13.07;4.43;;;;;;;-1.04;100.00;102369.72;5163671;56;1138868;-73
2022/02/12 05:39:56;;;;;;;18.97;5.33;;;;;;;-1.09;100.00;102368.02;5160327;57;1139198;-76
2022/02/12 05:45:01;;;;;;;12.77;4.53;;;;;;;-1.12;100.00;102384.02;5162953;57;1139312;-76
2022/02/12 05:50:08;;;;;;;23.33;5.87;;;;;;;-1.13;100.00;102394.84;5164769;57;1139081;-75
2022/02/12 05:55:14;;;;;;;39.80;15.53;;;;;;;-1.09;100.00;102394.41;5164890;57;1139078;-78
2022/02/12 06:00:20;;;;;;;28.40;9.53;;;;;;;-0.90;100.00;102409.11;5164696;57;1141338;-75
2022/02/12 06:05:26;;;;;;;14.63;4.87;;;;;;;-0.84;100.00;102423.84;5165386;57;1139069;-74
2022/02/12 06:10:33;;;;;;;12.53;4.00;;;;;;;-0.93;100.00;102433.81;5165414;57;1139338;-77
2022/02/12 06:15:39;;;;;;;4.40;2.70;;;;;;;-1.10;100.00;102428.59;5155953;57;1139061;-77
2022/02/12 06:20:45;;;;;;;9.30;2.83;;;;;;;-1.24;100.00;102438.53;5081295;58;1137225;-77
2022/02/12 06:25:51;;;;;;;16.80;3.67;;;;;;;-1.36;100.00;102440.64;5081724;58;1137012;-76
2022/02/12 06:30:57;;;;;;;17.03;4.03;;;;;;;-1.37;100.00;102441.94;5058681;57;1139042;-75
2022/02/12 06:36:03;;;;;;;15.70;5.20;;;;;;;-1.38;100.00;102442.41;5093450;57;1139116;-71
2022/02/12 06:41:09;;;;;;;11.87;3.53;;;;;;;-1.36;100.00;102451.03;5131936;57;1139063;-71
2022/02/12 06:46:15;;;;;;;14.63;2.73;;;;;;;-1.33;100.00;102451.05;5131757;57;1139084;-76
2022/02/12 06:51:21;;;;;;;12.60;3.20;;;;;;;-1.27;100.00;102469.67;5131394;57;1139082;-75
2022/02/12 06:56:27;;;;;;;14.20;5.07;;;;;;;-1.26;100.00;102463.19;5134261;56;1139153;-76
2022/02/12 07:01:32;;;;;;;15.93;5.17;;;;;;;-1.18;100.00;102460.59;5133178;56;1139150;-82
2022/02/12 07:06:38;;;;;;;18.27;5.60;;;;;;;-1.00;100.00;102456.73;5134266;57;1139007;-78
2022/02/12 07:11:44;;;;;;;16.87;4.93;;;;;;;-0.87;100.00;102467.55;5134300;57;1136976;-80
2022/02/12 07:16:50;;;;;;;10.97;3.77;;;;;;;-0.71;100.00;102471.02;5155500;57;21862;-83
2022/02/12 07:21:55;;;;;;;25.53;5.80;;;;;;;-0.58;100.00;102469.28;5135956;57;1136897;-73
2022/02/12 07:27:01;;;;;;;17.10;3.60;;;;;;;-0.49;100.00;102471.47;5135929;57;1141048;-79
2022/02/12 07:32:08;;;;;;;21.17;6.57;;;;;;;-0.40;100.00;102471.44;5149368;57;1141097;-74
2022/02/12 07:37:14;;;;;;;15.17;5.50;;;;;;;-0.30;100.00;102476.19;5147395;57;1140819;-77
2022/02/12 07:42:19;;;;;;;15.40;3.93;;;;;;;-0.13;100.00;102479.62;5151695;57;1141039;-80
2022/02/12 07:47:25;;;;;;;12.00;3.90;;;;;;;-0.01;100.00;102482.22;5151300;55;1141031;-74
2022/02/12 07:52:32;;;;;;;19.15;5.37;;;;;;;0.19;100.00;102484.73;5129446;55;1141133;-71
2022/02/12 07:57:38;;;;;;;27.23;11.67;;;;;;;0.36;100.00;102487.28;5118715;57;1139071;-75
2022/02/12 08:02:45;;;;;;;20.63;5.17;;;;;;;0.55;100.00;102495.88;5120825;57;1141242;-79
2022/02/12 08:07:51;;;;;;;61.90;24.27;;;;;;;0.69;100.00;102504.05;5149885;57;1138915;-76
2022/02/12 08:12:57;;;;;;;36.97;13.93;;;;;;;0.72;100.00;102518.80;5151894;55;1141019;-78
2022/02/12 08:18:03;;;;;;;60.87;22.53;;;;;;;0.69;100.00;102534.00;5151871;55;1141084;-78
2022/02/12 08:23:09;;;;;;;111.80;40.90;;;;;;;0.75;100.00;102529.65;5151863;55;1141061;-75
2022/02/12 08:28:15;;;;;;;22.77;9.30;;;;;;;0.76;100.00;102529.64;5150760;57;1143233;-82
2022/02/12 08:33:21;;;;;;;59.17;22.97;;;;;;;0.74;100.00;102536.59;5164395;57;1138949;-77
2022/02/12 08:38:27;;;;;;;167.27;38.07;;;;;;;0.78;100.00;102547.41;5161432;57;1140997;-79
2022/02/12 08:43:32;;;;;;;64.17;17.17;;;;;;;0.96;100.00;102540.80;5164825;57;1143210;-75
2022/02/12 08:48:38;;;;;;;48.10;12.43;;;;;;;1.08;100.00;102540.30;5133049;57;1141321;-83
2022/02/12 08:53:44;;;;;;;24.20;8.30;;;;;;;1.20;100.00;102549.36;5153621;57;1141065;-77
2022/02/12 08:58:50;;;;;;;13.50;5.70;;;;;;;1.31;100.00;102547.54;5166100;56;1139015;-78
2022/02/12 09:03:57;;;;;;;49.80;12.57;;;;;;;1.43;100.00;102548.75;5164542;57;1138982;-75
2022/02/12 09:09:04;;;;;;;23.57;8.73;;;;;;;1.47;100.00;102554.38;5162756;56;1141144;-76
2022/02/12 09:14:10;;;;;;;13.03;5.43;;;;;;;1.65;100.00;102563.81;5164156;57;1138592;-78
2022/02/12 09:19:16;;;;;;;13.33;6.33;;;;;;;1.85;100.00;102561.00;5164630;57;1138993;-75
2022/02/12 09:24:21;;;;;;;31.70;7.83;;;;;;;1.96;100.00;102563.10;5164137;56;1139123;-77
2022/02/12 09:29:27;;;;;;;45.67;10.18;;;;;;;2.05;100.00;102550.81;5163753;57;1138945;-78
2022/02/12 09:34:32;;;;;;;32.98;9.33;;;;;;;2.20;100.00;102552.41;5126932;57;1141157;-73
2022/02/12 09:39:38;;;;;;;10.63;3.80;;;;;;;2.32;100.00;102534.43;5067890;57;1139097;-73
2022/02/12 09:44:44;;;;;;;21.43;6.60;;;;;;;2.35;100.00;102537.88;5096094;56;1138960;-76
2022/02/12 09:49:50;;;;;;;17.90;6.67;;;;;;;2.40;100.00;102537.84;5100909;57;1139022;-77
2022/02/12 09:54:56;;;;;;;25.73;6.70;;;;;;;2.43;100.00;102534.76;5120636;56;1138955;-72
2022/02/12 10:00:08;;;;;;;38.50;9.87;;;;;;;2.61;100.00;102532.78;5128582;57;1138989;-79
2022/02/12 10:05:28;;;;;;;47.80;15.20;;;;;;;2.69;100.00;102530.95;5133710;56;1139021;-79
2022/02/12 10:10:36;;;;;;;30.17;9.50;;;;;;;2.72;100.00;102523.08;5134529;57;1141107;-76
2022/02/12 10:15:45;;;;;;;19.60;6.50;;;;;;;2.75;100.00;102517.82;5136537;56;1139155;-78
2022/02/12 10:20:54;;;;;;;19.67;9.60;;;;;;;2.77;100.00;102513.41;5136418;57;1136930;-72
2022/02/12 10:26:09;;;;;;;25.70;6.70;;;;;;;2.78;100.00;102502.94;5123692;57;1137184;-76
2022/02/12 10:31:16;;;;;;;17.20;4.87;;;;;;;2.79;100.00;102502.50;5138163;57;1136935;-73
2022/02/12 10:36:22;;;;;;;10.90;2.60;;;;;;;2.91;100.00;102506.24;5118329;57;1137059;-79
2022/02/12 10:41:28;;;;;;;7.90;3.27;;;;;;;3.00;98.80;102510.49;5137049;57;1136904;-78
2022/02/12 10:46:34;;;;;;;10.00;2.33;;;;;;;2.94;95.56;102501.42;5157275;57;1132866;-72
2022/02/12 10:51:46;;;;;;;5.67;1.93;;;;;;;2.98;95.57;102496.13;5139130;56;1134872;-75
2022/02/12 10:57:00;;;;;;;3.90;1.73;;;;;;;2.95;90.82;102492.70;5081736;58;1132753;-71
2022/02/12 11:02:23;;;;;;;;;;;;;;;3.00;89.21;102489.58;5103208;57;1132767;-74
2022/02/12 11:07:26;;;;;;;10.27;4.17;;;;;;;3.04;91.24;102480.81;5157164;57;970235;-73
2022/02/12 11:12:33;;;;;;;8.67;3.13;;;;;;;3.10;91.87;102484.63;5121258;57;1130883;-71
2022/02/12 11:17:40;;;;;;;12.93;3.63;;;;;;;3.19;87.43;102497.58;5164808;57;1130847;-71
2022/02/12 11:22:50;;;;;;;5.03;2.27;;;;;;;3.30;91.73;102493.48;5130877;57;1137132;-75
2022/02/12 11:28:09;;;;;;;24.57;7.97;;;;;;;3.39;86.85;102487.64;5143552;57;1134804;-75
2022/02/12 11:33:21;;;;;;;17.67;9.47;;;;;;;3.36;84.70;102482.45;5146187;57;1137204;-79
2022/02/12 11:38:40;;;;;;;6.60;3.30;;;;;;;3.42;82.26;102473.21;5109888;57;1137336;-77
2022/02/12 11:43:47;;;;;;;12.80;6.17;;;;;;;3.56;85.67;102465.13;5092643;56;1134827;-70
2022/02/12 11:48:56;;;;;;;36.57;14.47;;;;;;;3.72;83.91;102458.73;5066733;57;1136963;-77
2022/02/12 11:54:01;;;;;;;18.67;6.80;;;;;;;3.84;83.64;102452.40;5128724;57;1138897;-75
2022/02/12 11:59:10;;;;;;;47.40;18.30;;;;;;;3.91;83.00;102447.48;5118249;56;1137122;-74
2022/02/12 12:04:31;;;;;;;18.87;6.60;;;;;;;4.23;83.06;102441.61;5109856;57;1139037;-74
2022/02/12 12:09:37;;;;;;;17.17;5.83;;;;;;;4.23;83.06;102441.61;5135427;57;1136915;-73
2022/02/12 12:14:44;;;;;;;12.17;4.67;;;;;;;4.34;82.40;102439.62;5102659;57;1136919;-69
2022/02/12 12:19:54;;;;;;;28.13;9.20;;;;;;;4.45;82.90;102441.55;5069744;57;1136886;-70
2022/02/12 12:25:00;;;;;;;20.50;5.70;;;;;;;4.49;78.47;102430.56;5093899;56;1136965;-74
2022/02/12 12:35:38;;;;;;;25.00;7.90;;;;;;;4.57;78.73;102424.73;5145762;57;1137027;-70
2022/02/12 12:40:46;;;;;;;25.77;7.77;;;;;;;4.70;79.49;102414.83;5165247;56;1137036;-72
2022/02/12 12:45:54;;;;;;;59.10;19.53;;;;;;;4.84;80.37;102409.67;5165041;57;1136944;-72
2022/02/12 12:50:59;;;;;;;10.17;6.20;;;;;;;4.95;78.53;102412.89;5130312;56;1139039;-72
2022/02/12 12:56:06;;;;;;;36.77;10.20;;;;;;;4.98;77.09;102404.09;5142557;57;1137002;-73
2022/02/12 13:01:12;;;;;;;51.83;13.57;;;;;;;5.04;81.74;102396.06;5082671;57;1139205;-71
2022/02/12 13:06:18;;;;;;;11.10;4.40;;;;;;;5.25;81.49;102387.66;5117986;57;1139035;-71
2022/02/12 13:11:33;;;;;;;12.63;4.27;;;;;;;5.37;76.45;102374.67;5151043;57;1134742;-71
2022/02/12 13:16:43;;;;;;;17.40;5.40;;;;;;;5.35;71.30;102382.20;5165283;56;1134970;-70
2022/02/12 13:22:00;;;;;;;22.40;7.70;;;;;;;5.31;70.90;102373.54;5157835;57;1134956;-70
2022/02/12 13:27:02;;;;;;;33.42;10.30;;;;;;;5.21;69.80;102365.47;5123015;57;1134843;-70
2022/02/12 13:32:10;;;;;;;32.33;10.47;;;;;;;5.21;73.94;102352.36;5121663;57;1136952;-69
2022/02/12 13:37:15;;;;;;;36.20;10.90;;;;;;;5.35;74.06;102348.92;5159741;57;1137228;-70
2022/02/12 13:42:24;;;;;;;28.57;8.13;;;;;;;5.56;73.15;102348.80;5160277;57;1136917;-71
2022/02/12 13:47:30;;;;;;;20.33;7.23;;;;;;;5.62;68.92;102337.70;5164977;57;1134751;-71
2022/02/12 13:52:37;;;;;;;13.08;5.72;;;;;;;5.76;66.93;102343.87;5143391;57;1134841;-71
2022/02/12 13:57:43;;;;;;;23.43;7.97;;;;;;;5.91;71.41;102317.65;5164965;56;1134792;-74
2022/02/12 14:02:53;;;;;;;15.13;5.00;;;;;;;6.16;64.24;102306.80;5164768;57;1134845;-70
2022/02/12 14:07:59;;;;;;;31.90;9.97;;;;;;;6.16;66.69;102318.63;5164970;57;1134836;-73
2022/02/12 14:13:04;;;;;;;27.47;10.03;;;;;;;6.58;67.50;102311.14;5120668;56;1134847;-73
2022/02/12 14:18:10;;;;;;;42.70;11.95;;;;;;;7.34;69.04;102295.84;5080909;58;1134853;-73
2022/02/12 14:23:22;;;;;;;15.03;5.07;;;;;;;7.83;66.42;102289.63;5159502;57;1134905;-69
2022/02/12 14:28:24;;;;;;;22.17;6.93;;;;;;;7.48;60.38;102275.62;5164456;57;1136873;-71
2022/02/12 14:33:32;;;;;;;28.20;7.23;;;;;;;7.61;62.97;102263.27;5165762;57;1136861;-70
2022/02/12 14:38:37;;;;;;;17.73;6.23;;;;;;;7.36;61.83;102257.16;5132927;57;1136900;-71
2022/02/12 14:44:02;;;;;;;34.27;11.13;;;;;;;6.27;65.43;102258.70;5042021;58;1136820;-72
2022/02/12 14:49:36;;;;;;;25.43;10.03;;;;;;;5.81;68.05;102244.80;5055844;57;1138927;-73
2022/02/12 14:54:43;;;;;;;36.70;17.53;;;;;;;5.51;65.70;102245.26;5032116;58;1139041;-71
2022/02/12 14:59:49;;;;;;;72.27;34.90;;;;;;;5.91;69.44;102223.11;5046243;58;1138997;-71
2022/02/12 15:04:54;;;;;;;54.07;26.43;;;;;;;6.19;68.40;102222.64;5046090;58;1138974;-71
2022/02/12 15:10:00;;;;;;;37.80;15.93;;;;;;;5.73;67.09;102223.19;5051076;58;1139027;-72
2022/02/12 15:15:10;;;;;;;62.10;30.50;;;;;;;5.40;70.85;102214.54;5030500;58;1139020;-71
2022/02/12 15:20:15;;;;;;;43.50;21.87;;;;;;;5.16;69.76;102201.69;5013395;58;1138896;-70
2022/02/12 15:25:21;;;;;;;53.73;24.90;;;;;;;5.03;72.66;102195.08;4991478;59;1139020;-70
2022/02/12 15:30:27;;;;;;;75.30;37.33;;;;;;;5.12;72.34;102189.56;4991345;59;1138951;-71
2022/02/12 15:35:32;;;;;;;60.33;29.17;;;;;;;4.99;71.43;102188.64;5006581;58;1139158;-72
2022/02/12 15:40:38;;;;;;;28.77;9.93;;;;;;;4.73;72.99;102186.73;5109495;57;1139052;-71
2022/02/12 15:45:44;;;;;;;16.48;6.70;;;;;;;4.55;73.75;102200.72;5130848;57;1136932;-73
2022/02/12 15:50:51;;;;;;;54.70;15.77;;;;;;;4.33;74.00;102182.51;5126362;56;1137143;-71
2022/02/12 15:55:58;;;;;;;22.03;6.83;;;;;;;4.27;75.33;102181.82;5115294;57;1138987;-69
2022/02/12 16:01:04;;;;;;;57.63;22.83;;;;;;;4.11;75.79;102173.03;5119624;57;1136960;-69
2022/02/12 16:06:10;;;;;;;64.53;28.20;;;;;;;4.03;76.47;102174.09;5130502;56;1139042;-66
2022/02/12 16:11:16;;;;;;;84.00;31.83;;;;;;;3.98;77.08;102167.66;5138231;57;1139048;-68
2022/02/12 16:16:22;;;;;;;113.50;51.75;;;;;;;3.94;77.28;102166.48;5153401;57;1139070;-70
2022/02/12 16:21:27;;;;;;;106.97;45.43;;;;;;;3.85;77.74;102153.14;5164828;57;1141170;-68
2022/02/12 16:26:34;;;;;;;99.40;27.90;;;;;;;3.79;78.20;102158.54;5135706;57;1141413;-69
2022/02/12 16:31:40;;;;;;;128.93;39.53;;;;;;;3.73;77.95;102149.06;5104266;57;1139168;-66
2022/02/12 16:36:46;;;;;;;80.17;24.57;;;;;;;3.66;78.18;102140.09;5119354;57;1141090;-69
2022/02/12 16:41:54;;;;;;;62.50;25.87;;;;;;;3.54;78.32;102132.92;5095858;57;1139000;-68
2022/02/12 16:47:02;;;;;;;54.90;21.23;;;;;;;3.41;79.15;102136.70;5114025;57;1138979;-67
2022/02/12 16:52:11;;;;;;;46.53;18.57;;;;;;;3.29;79.49;102133.06;5106880;57;1139255;-70
2022/02/12 16:57:17;;;;;;;53.93;24.33;;;;;;;3.20;80.15;102131.97;5135987;56;1137208;-75
2022/02/12 17:02:23;;;;;;;48.80;20.73;;;;;;;3.21;80.76;102141.98;5135717;57;1137011;-75
2022/02/12 17:07:29;;;;;;;39.30;15.70;;;;;;;3.10;81.02;102140.43;5135800;57;1136972;-82
2022/02/12 17:12:35;;;;;;;62.60;25.68;;;;;;;3.02;80.88;102135.82;5131766;57;1136959;-77
2022/02/12 17:17:42;;;;;;;96.13;34.47;;;;;;;2.94;81.51;102140.33;5131190;57;1136874;-69
2022/02/12 17:22:47;;;;;;;62.93;25.73;;;;;;;2.82;81.83;102133.60;5133841;57;1136896;-70
2022/02/12 17:27:55;;;;;;;114.47;49.77;;;;;;;2.73;82.29;102125.95;5135740;57;1136933;-69
2022/02/12 17:33:00;;;;;;;54.17;23.97;;;;;;;2.66;82.29;102129.56;5135925;56;1139043;-69
2022/02/12 17:38:06;;;;;;;39.77;15.40;;;;;;;2.52;82.74;102126.35;5144363;56;1136956;-69
2022/02/12 17:43:12;;;;;;;44.13;15.90;;;;;;;2.43;83.00;102151.34;5163999;57;1137165;-71
2022/02/12 17:48:18;;;;;;;64.10;21.93;;;;;;;2.26;83.67;102122.92;5163919;57;1137188;-71
2022/02/12 17:53:23;;;;;;;71.17;23.40;;;;;;;2.26;83.99;102134.66;5165039;57;1136883;-69
2022/02/12 17:58:30;;;;;;;33.60;12.60;;;;;;;2.28;84.60;102126.81;5164863;57;1137027;-69
2022/02/12 18:03:36;;;;;;;67.67;33.17;;;;;;;2.27;84.50;102123.78;5165668;57;1136916;-68
2022/02/12 18:14:05;;;;;;;39.40;11.40;;;;;;;2.09;85.09;102103.63;5182319;57;21144;-78
2022/02/12 18:19:11;;;;;;;30.23;11.00;;;;;;;2.07;85.41;102096.27;5165103;56;1134703;-82
2022/02/12 18:24:17;;;;;;;46.30;15.43;;;;;;;2.05;85.72;102094.56;5164277;57;1138958;-74
2022/02/12 18:29:23;;;;;;;25.13;8.97;;;;;;;2.00;85.97;102087.25;5165476;57;1138899;-77
2022/02/12 18:34:29;;;;;;;35.13;12.78;;;;;;;1.96;86.21;102084.30;5164733;57;1136885;-76
2022/02/12 18:39:34;;;;;;;49.73;13.90;;;;;;;1.95;86.31;102083.88;5149119;57;1138964;-74
2022/02/12 18:44:40;;;;;;;43.07;14.27;;;;;;;1.86;86.17;102073.14;5137217;56;1138862;-73
2022/02/12 18:49:45;;;;;;;33.63;11.80;;;;;;;1.80;86.60;102069.79;5101942;56;1139033;-75
2022/02/12 18:54:51;;;;;;;38.53;13.87;;;;;;;1.77;86.63;102058.95;5054530;57;1138979;-71
2022/02/12 18:59:58;;;;;;;33.30;13.97;;;;;;;1.71;86.56;102052.53;5133251;57;1139059;-73
2022/02/12 19:05:04;;;;;;;31.47;11.13;;;;;;;1.62;86.56;102050.95;5133067;56;1138979;-77
2022/02/12 19:10:10;;;;;;;35.13;12.83;;;;;;;1.60;86.84;102045.33;5102171;56;1138973;-73
2022/02/12 19:15:19;;;;;;;31.10;9.33;;;;;;;1.59;87.01;102036.65;5096323;57;1138901;-76
2022/02/12 19:20:24;;;;;;;47.53;18.63;;;;;;;1.53;86.82;102031.52;5109801;57;1137235;-80
2022/02/12 19:25:34;;;;;;;199.30;79.57;;;;;;;1.59;86.75;102022.30;5096887;57;1139180;-75
2022/02/12 19:30:40;;;;;;;73.73;22.23;;;;;;;1.60;86.54;102023.16;5095543;57;1141296;-71
2022/02/12 19:35:46;;;;;;;83.60;26.00;;;;;;;1.58;86.58;102025.80;5077656;57;1139250;-79
2022/02/12 19:40:52;;;;;;;233.50;52.53;;;;;;;1.59;86.72;102018.84;5097959;56;1139136;-71
2022/02/12 19:45:59;;;;;;;114.73;29.50;;;;;;;1.64;86.70;102014.41;5151344;57;1141047;-75
2022/02/12 19:51:10;;;;;;;122.07;30.00;;;;;;;1.64;86.23;101999.63;5151151;57;1141064;-71
2022/02/12 19:56:16;;;;;;;101.67;24.17;;;;;;;1.62;86.41;102003.14;5136524;57;1141004;-76
2022/02/12 20:01:22;;;;;;;56.27;17.53;;;;;;;1.60;86.55;101990.57;5151297;57;1141316;-73
2022/02/12 20:06:27;;;;;;;43.52;12.95;;;;;;;1.55;86.17;101999.77;5146556;57;1139004;-74
2022/02/12 20:11:33;;;;;;;33.37;11.10;;;;;;;1.50;85.81;101991.62;5142497;57;1138986;-81
2022/02/12 20:16:40;;;;;;;33.40;12.13;;;;;;;1.51;85.78;101982.92;5151820;57;1138971;-81
2022/02/12 20:21:45;;;;;;;55.40;15.80;;;;;;;1.50;86.22;101967.72;5151497;57;1138986;-80
2022/02/12 20:26:51;;;;;;;69.50;18.40;;;;;;;1.50;86.66;101968.16;5151976;55;1139053;-78
2022/02/12 20:31:58;;;;;;;43.40;13.53;;;;;;;1.47;86.63;101970.38;5152395;57;1139040;-76
2022/02/12 20:37:05;;;;;;;39.90;11.33;;;;;;;1.44;86.98;101963.90;5151827;55;1139132;-73
2022/02/12 20:42:11;;;;;;;43.13;15.28;;;;;;;1.41;87.04;101954.82;5141900;57;1139038;-70
2022/02/12 20:47:16;;;;;;;39.70;14.17;;;;;;;1.35;87.43;101956.25;5135996;57;1139009;-75
2022/02/12 20:52:22;;;;;;;41.73;14.13;;;;;;;1.30;87.68;101950.23;5136071;57;1138968;-78
2022/02/12 20:57:30;;;;;;;41.37;12.90;;;;;;;1.27;88.07;101934.20;5124654;57;1139045;-75
2022/02/12 21:02:36;;;;;;;32.13;11.83;;;;;;;1.20;88.33;101933.91;5094698;57;1139290;-76
2022/02/12 21:07:43;;;;;;;40.07;14.43;;;;;;;1.16;88.74;101926.16;5091475;57;1139026;-77
2022/02/12 21:12:49;;;;;;;30.33;12.10;;;;;;;1.13;88.95;101927.05;5097847;57;1139074;-77
2022/02/12 21:17:55;;;;;;;30.63;9.60;;;;;;;1.08;89.07;101934.08;5094783;57;1138994;-74
2022/02/12 21:23:01;;;;;;;28.00;10.47;;;;;;;1.08;89.41;101935.37;5111935;57;1137001;-75
2022/02/12 21:28:08;;;;;;;50.20;15.63;;;;;;;1.05;89.64;101926.33;5136081;57;1136927;-74
2022/02/12 21:33:14;;;;;;;41.27;13.00;;;;;;;1.00;89.77;101921.63;5097693;57;1137013;-72
2022/02/12 21:38:19;;;;;;;49.20;13.07;;;;;;;0.91;89.98;101920.04;5095693;57;1136884;-74
2022/02/12 21:43:25;;;;;;;43.73;12.27;;;;;;;0.82;90.49;101914.95;5108981;57;1137105;-75
2022/02/12 21:48:32;;;;;;;43.00;14.67;;;;;;;0.77;90.82;101912.84;5175820;56;1137341;-79
2022/02/12 21:53:38;;;;;;;44.27;13.50;;;;;;;0.76;91.17;101906.39;5152764;57;1136896;-76
2022/02/12 21:58:44;;;;;;;47.07;13.03;;;;;;;0.74;91.24;101910.76;5153036;55;1136933;-73
2022/02/12 22:03:50;;;;;;;33.33;11.07;;;;;;;0.70;91.50;101905.59;5152547;57;1136987;-77
2022/02/12 22:08:56;;;;;;;42.57;13.30;;;;;;;0.65;91.82;101891.77;5152054;57;1136979;-76
2022/02/12 22:14:04;;;;;;;26.23;10.17;;;;;;;0.63;91.90;101890.06;5148125;57;1136961;-73
2022/02/12 22:19:10;;;;;;;25.33;10.33;;;;;;;0.60;92.24;101889.70;5148046;57;1137171;-74
2022/02/12 22:24:16;;;;;;;25.37;11.10;;;;;;;0.58;92.35;101873.67;5148202;56;1136837;-71
2022/02/12 22:29:22;;;;;;;30.23;10.53;;;;;;;0.60;92.58;101873.22;5148177;57;1136871;-73
2022/02/12 22:34:28;;;;;;;24.85;8.88;;;;;;;0.65;92.65;101866.17;5148355;57;1136929;-77
2022/02/12 22:39:34;;;;;;;31.37;10.37;;;;;;;0.63;92.61;101859.69;5148026;57;1134879;-75
2022/02/12 22:44:40;;;;;;;22.83;9.87;;;;;;;0.62;92.68;101861.01;5158119;57;1136908;-71
2022/02/12 22:49:46;;;;;;;33.17;12.80;;;;;;;0.61;92.84;101855.41;5161062;57;1134922;-76
2022/02/12 22:54:52;;;;;;;34.47;12.27;;;;;;;0.59;92.74;101851.97;5141656;57;1135018;-74
2022/02/12 22:59:58;;;;;;;24.40;11.13;;;;;;;0.55;92.97;101847.24;5165725;57;1135246;-76
2022/02/12 23:05:04;;;;;;;21.00;8.90;;;;;;;0.50;93.11;101837.33;5165716;57;1134834;-71
2022/02/12 23:10:10;;;;;;;26.23;10.73;;;;;;;0.46;93.16;101835.65;5163955;57;1137013;-73
2022/02/12 23:15:16;;;;;;;31.53;12.30;;;;;;;0.43;93.29;101839.63;5160932;57;1138928;-81